sensor_id;sensor_type;location;lat;lon;timestamp;pressure;altitude;pressure_sealevel;temperature;humidity
60719;BME280;46567;51.660;5.824;2023-09-19T00:03:20;129360.0;;;190.6;100.0
60719;BME280;46567;51.660;5.824;2023-09-19T00:08:20;129370.0;;;190.6;100.0
60719;BME280;46567;51.660;5.824;2023-09-19T00:13:20;129390.0;;;190.6;100.0
60719;BME280;46567;51.660;5.824;2023-09-19T00:18:20;129390.0;;;190.6;100.0
60719;BME280;46567;51.660;5.824;2023-09-19T00:23:20;129400.0;;;190.6;100.0
60719;BME280;46567;51.660;5.824;2023-09-19T00:28:20;129420.0;;;190.6;100.0
60719;BME280;46567;51.660;5.824;2023-09-19T00:33:20;129430.0;;;190.6;100.0
60719;BME280;46567;51.660;5.824;2023-09-19T00:38:21;129460.0;;;190.6;100.0
60719;BME280;46567;51.660;5.824;2023-09-19T00:43:20;129470.0;;;190.6;100.0
60719;BME280;46567;51.660;5.824;2023-09-19T00:48:20;129480.0;;;190.6;100.0
60719;BME280;46567;51.660;5.824;2023-09-19T00:53:23;129500.0;;;190.6;100.0
60719;BME280;46567;51.660;5.824;2023-09-19T00:58:20;129520.0;;;190.6;100.0
60719;BME280;46567;51.660;5.824;2023-09-19T01:08:20;129550.0;;;190.6;100.0
60719;BME280;46567;51.660;5.824;2023-09-19T01:14:34;129570.0;;;190.6;100.0
60719;BME280;46567;51.660;5.824;2023-09-19T01:22:53;129590.0;;;190.6;100.0
60719;BME280;46567;51.660;5.824;2023-09-19T01:29:51;129590.0;;;190.6;100.0
60719;BME280;46567;51.660;5.824;2023-09-19T01:31:39;129590.0;;;190.6;100.0
60719;BME280;46567;51.660;5.824;2023-09-19T01:33:20;129590.0;;;190.6;100.0
60719;BME280;46567;51.660;5.824;2023-09-19T01:38:20;129610.0;;;190.6;100.0
60719;BME280;46567;51.660;5.824;2023-09-19T01:43:50;129620.0;;;190.6;100.0
60719;BME280;46567;51.660;5.824;2023-09-19T01:49:22;129630.0;;;190.6;100.0
60719;BME280;46567;51.660;5.824;2023-09-19T01:54:09;129640.0;;;190.6;100.0
60719;BME280;46567;51.660;5.824;2023-09-19T01:58:45;129640.0;;;190.6;100.0
60719;BME280;46567;51.660;5.824;2023-09-19T02:03:20;129660.0;;;190.6;100.0
60719;BME280;46567;51.660;5.824;2023-09-19T02:08:22;129670.0;;;190.6;100.0
60719;BME280;46567;51.660;5.824;2023-09-19T02:13:22;129680.0;;;190.6;100.0
60719;BME280;46567;51.660;5.824;2023-09-19T02:18:20;129690.0;;;190.6;100.0
60719;BME280;46567;51.660;5.824;2023-09-19T02:23:20;129720.0;;;190.6;100.0
60719;BME280;46567;51.660;5.824;2023-09-19T02:28:20;129720.0;;;190.6;100.0
60719;BME280;46567;51.660;5.824;2023-09-19T02:33:20;129730.0;;;190.6;100.0
60719;BME280;46567;51.660;5.824;2023-09-19T02:38:20;129740.0;;;190.6;100.0
60719;BME280;46567;51.660;5.824;2023-09-19T02:43:20;129770.0;;;190.6;100.0
60719;BME280;46567;51.660;5.824;2023-09-19T02:48:20;129780.0;;;190.6;100.0
60719;BME280;46567;51.660;5.824;2023-09-19T02:53:20;129790.0;;;190.6;100.0
60719;BME280;46567;51.660;5.824;2023-09-19T02:58:20;129790.0;;;190.6;100.0
60719;BME280;46567;51.660;5.824;2023-09-19T03:03:20;129810.0;;;190.6;100.0
60719;BME280;46567;51.660;5.824;2023-09-19T03:08:20;129830.0;;;190.6;100.0
60719;BME280;46567;51.660;5.824;2023-09-19T03:13:20;129840.0;;;190.6;100.0
60719;BME280;46567;51.660;5.824;2023-09-19T03:18:20;129850.0;;;190.6;100.0
60719;BME280;46567;51.660;5.824;2023-09-19T03:23:20;129850.0;;;190.6;100.0
60719;BME280;46567;51.660;5.824;2023-09-19T03:28:20;129860.0;;;190.6;100.0
60719;BME280;46567;51.660;5.824;2023-09-19T03:33:20;129870.0;;;190.6;100.0
60719;BME280;46567;51.660;5.824;2023-09-19T03:38:20;129880.0;;;190.6;100.0
60719;BME280;46567;51.660;5.824;2023-09-19T03:43:20;129880.0;;;190.6;100.0
60719;BME280;46567;51.660;5.824;2023-09-19T03:48:20;129890.0;;;190.6;100.0
60719;BME280;46567;51.660;5.824;2023-09-19T03:53:20;129880.0;;;190.6;100.0
60719;BME280;46567;51.660;5.824;2023-09-19T03:58:20;129880.0;;;190.6;100.0
60719;BME280;46567;51.660;5.824;2023-09-19T04:03:20;129880.0;;;190.6;100.0
60719;BME280;46567;51.660;5.824;2023-09-19T04:08:20;129880.0;;;190.6;100.0
60719;BME280;46567;51.660;5.824;2023-09-19T04:13:20;129880.0;;;190.6;100.0
60719;BME280;46567;51.660;5.824;2023-09-19T04:18:20;129880.0;;;190.6;100.0
60719;BME280;46567;51.660;5.824;2023-09-19T04:23:20;129900.0;;;190.6;100.0
60719;BME280;46567;51.660;5.824;2023-09-19T04:28:20;129920.0;;;190.6;100.0
60719;BME280;46567;51.660;5.824;2023-09-19T04:33:20;129930.0;;;190.6;100.0
60719;BME280;46567;51.660;5.824;2023-09-19T04:38:20;129950.0;;;190.6;100.0
60719;BME280;46567;51.660;5.824;2023-09-19T04:43:20;129970.0;;;190.6;100.0
60719;BME280;46567;51.660;5.824;2023-09-19T04:48:20;129990.0;;;190.6;100.0
60719;BME280;46567;51.660;5.824;2023-09-19T04:53:20;129990.0;;;190.6;100.0
60719;BME280;46567;51.660;5.824;2023-09-19T04:58:20;130000.0;;;190.6;100.0
60719;BME280;46567;51.660;5.824;2023-09-19T05:03:20;130000.0;;;190.6;100.0
60719;BME280;46567;51.660;5.824;2023-09-19T05:08:20;129990.0;;;190.6;100.0
60719;BME280;46567;51.660;5.824;2023-09-19T05:13:20;129960.0;;;190.6;100.0
60719;BME280;46567;51.660;5.824;2023-09-19T05:18:20;129970.0;;;190.6;100.0
60719;BME280;46567;51.660;5.824;2023-09-19T05:23:20;129970.0;;;190.6;100.0
60719;BME280;46567;51.660;5.824;2023-09-19T05:28:20;129970.0;;;190.6;100.0
60719;BME280;46567;51.660;5.824;2023-09-19T05:33:20;129960.0;;;190.6;100.0
60719;BME280;46567;51.660;5.824;2023-09-19T05:38:20;129960.0;;;190.6;100.0
60719;BME280;46567;51.660;5.824;2023-09-19T05:43:20;129950.0;;;190.6;100.0
60719;BME280;46567;51.660;5.824;2023-09-19T05:48:20;129950.0;;;190.6;100.0
60719;BME280;46567;51.660;5.824;2023-09-19T05:53:20;129940.0;;;190.6;100.0
60719;BME280;46567;51.660;5.824;2023-09-19T05:58:20;129930.0;;;190.6;100.0
60719;BME280;46567;51.660;5.824;2023-09-19T06:03:20;129920.0;;;190.6;100.0
60719;BME280;46567;51.660;5.824;2023-09-19T06:08:20;129920.0;;;190.6;100.0
60719;BME280;46567;51.660;5.824;2023-09-19T06:13:20;129920.0;;;190.6;100.0
60719;BME280;46567;51.660;5.824;2023-09-19T06:18:20;129890.0;;;190.6;100.0
60719;BME280;46567;51.660;5.824;2023-09-19T06:23:20;129880.0;;;190.6;100.0
60719;BME280;46567;51.660;5.824;2023-09-19T06:28:20;129870.0;;;190.6;100.0
60719;BME280;46567;51.660;5.824;2023-09-19T06:33:20;129870.0;;;190.6;100.0
60719;BME280;46567;51.660;5.824;2023-09-19T06:43:20;129850.0;;;190.6;100.0
60719;BME280;46567;51.660;5.824;2023-09-19T06:48:20;129840.0;;;190.6;100.0
60719;BME280;46567;51.660;5.824;2023-09-19T06:53:20;129840.0;;;190.6;100.0
60719;BME280;46567;51.660;5.824;2023-09-19T06:58:20;129830.0;;;190.6;100.0
60719;BME280;46567;51.660;5.824;2023-09-19T07:03:20;129810.0;;;190.6;100.0
60719;BME280;46567;51.660;5.824;2023-09-19T07:08:20;129790.0;;;190.6;100.0
60719;BME280;46567;51.660;5.824;2023-09-19T07:13:20;129780.0;;;190.6;100.0
60719;BME280;46567;51.660;5.824;2023-09-19T07:18:20;129760.0;;;190.6;100.0
60719;BME280;46567;51.660;5.824;2023-09-19T07:23:21;129760.0;;;190.6;100.0
60719;BME280;46567;51.660;5.824;2023-09-19T07:28:20;129730.0;;;190.6;100.0
60719;BME280;46567;51.660;5.824;2023-09-19T07:33:20;129720.0;;;190.6;100.0
60719;BME280;46567;51.660;5.824;2023-09-19T07:38:20;129700.0;;;190.6;100.0
60719;BME280;46567;51.660;5.824;2023-09-19T07:43:20;129690.0;;;190.6;100.0
60719;BME280;46567;51.660;5.824;2023-09-19T07:48:20;129660.0;;;190.6;100.0
60719;BME280;46567;51.660;5.824;2023-09-19T07:53:20;129640.0;;;190.6;100.0
60719;BME280;46567;51.660;5.824;2023-09-19T07:58:20;129580.0;;;190.6;100.0
60719;BME280;46567;51.660;5.824;2023-09-19T08:03:20;129550.0;;;190.6;99.5
60719;BME280;46567;51.660;5.824;2023-09-19T08:08:20;129510.0;;;190.6;99.0
60719;BME280;46567;51.660;5.824;2023-09-19T08:13:20;129450.0;;;190.6;99.0
60719;BME280;46567;51.660;5.824;2023-09-19T08:18:20;129400.0;;;190.6;98.0
60719;BME280;46567;51.660;5.824;2023-09-19T08:23:20;129390.0;;;190.6;97.0
60719;BME280;46567;51.660;5.824;2023-09-19T08:28:20;129390.0;;;190.6;96.5
60719;BME280;46567;51.660;5.824;2023-09-19T08:33:20;129370.0;;;190.6;96.5
60719;BME280;46567;51.660;5.824;2023-09-19T08:38:20;129340.0;;;190.6;95.5
60719;BME280;46567;51.660;5.824;2023-09-19T08:43:21;129320.0;;;190.6;95.5
60719;BME280;46567;51.660;5.824;2023-09-19T08:48:54;129270.0;;;190.6;95.0
60719;BME280;46567;51.660;5.824;2023-09-19T08:53:44;129250.0;;;190.6;94.0
60719;BME280;46567;51.660;5.824;2023-09-19T08:58:26;129230.0;;;190.6;93.0
60719;BME280;46567;51.660;5.824;2023-09-19T09:03:21;129240.0;;;190.6;92.5
60719;BME280;46567;51.660;5.824;2023-09-19T09:08:20;129220.0;;;190.6;91.0
60719;BME280;46567;51.660;5.824;2023-09-19T09:13:20;129160.0;;;190.6;91.5
60719;BME280;46567;51.660;5.824;2023-09-19T09:18:20;129140.0;;;190.6;90.0
60719;BME280;46567;51.660;5.824;2023-09-19T09:23:20;129170.0;;;190.6;89.0
60719;BME280;46567;51.660;5.824;2023-09-19T09:28:23;129140.0;;;190.6;89.0
60719;BME280;46567;51.660;5.824;2023-09-19T09:33:21;129110.0;;;190.6;88.5
60719;BME280;46567;51.660;5.824;2023-09-19T09:38:21;129110.0;;;190.6;89.0
60719;BME280;46567;51.660;5.824;2023-09-19T09:43:29;129040.0;;;190.6;88.0
60719;BME280;46567;51.660;5.824;2023-09-19T09:48:25;129000.0;;;190.6;86.5
60719;BME280;46567;51.660;5.824;2023-09-19T09:53:22;128980.0;;;190.6;85.5
60719;BME280;46567;51.660;5.824;2023-09-19T09:58:20;128970.0;;;190.6;85.5
60719;BME280;46567;51.660;5.824;2023-09-19T10:03:20;128920.0;;;190.6;85.0
60719;BME280;46567;51.660;5.824;2023-09-19T10:08:20;128890.0;;;190.6;84.5
60719;BME280;46567;51.660;5.824;2023-09-19T10:13:21;128860.0;;;190.6;83.0
60719;BME280;46567;51.660;5.824;2023-09-19T10:18:25;128840.0;;;190.6;81.5
60719;BME280;46567;51.660;5.824;2023-09-19T10:23:22;128840.0;;;190.6;80.5
60719;BME280;46567;51.660;5.824;2023-09-19T10:28:21;128820.0;;;190.6;81.0
60719;BME280;46567;51.660;5.824;2023-09-19T10:33:23;128760.0;;;190.6;79.5
60719;BME280;46567;51.660;5.824;2023-09-19T10:38:24;128700.0;;;190.6;79.0
60719;BME280;46567;51.660;5.824;2023-09-19T10:43:22;128660.0;;;190.6;77.0
60719;BME280;46567;51.660;5.824;2023-09-19T10:48:20;128670.0;;;190.6;77.0
60719;BME280;46567;51.660;5.824;2023-09-19T10:53:20;128670.0;;;190.6;76.5
60719;BME280;46567;51.660;5.824;2023-09-19T10:58:29;128680.0;;;190.6;77.0
60719;BME280;46567;51.660;5.824;2023-09-19T11:03:23;128650.0;;;190.6;77.0
60719;BME280;46567;51.660;5.824;2023-09-19T11:08:20;128600.0;;;190.6;75.5
60719;BME280;46567;51.660;5.824;2023-09-19T11:13:30;128590.0;;;190.6;74.5
60719;BME280;46567;51.660;5.824;2023-09-19T11:18:51;128590.0;;;190.6;75.0
60719;BME280;46567;51.660;5.824;2023-09-19T11:23:28;128560.0;;;190.6;74.5
60719;BME280;46567;51.660;5.824;2023-09-19T11:28:36;128570.0;;;190.6;74.5
60719;BME280;46567;51.660;5.824;2023-09-19T11:33:32;128530.0;;;190.6;74.0
60719;BME280;46567;51.660;5.824;2023-09-19T11:38:57;128520.0;;;190.6;73.0
60719;BME280;46567;51.660;5.824;2023-09-19T11:43:29;128500.0;;;190.6;72.5
60719;BME280;46567;51.660;5.824;2023-09-19T11:48:23;128500.0;;;190.6;73.0
60719;BME280;46567;51.660;5.824;2023-09-19T11:53:21;128470.0;;;190.6;73.0
60719;BME280;46567;51.660;5.824;2023-09-19T11:58:20;128410.0;;;190.6;71.5
60719;BME280;46567;51.660;5.824;2023-09-19T12:03:21;128320.0;;;190.6;70.0
60719;BME280;46567;51.660;5.824;2023-09-19T12:08:20;128300.0;;;190.6;69.5
60719;BME280;46567;51.660;5.824;2023-09-19T12:13:20;128300.0;;;190.6;68.5
60719;BME280;46567;51.660;5.824;2023-09-19T12:18:26;128270.0;;;190.6;67.0
60719;BME280;46567;51.660;5.824;2023-09-19T12:23:20;128270.0;;;190.6;66.0
60719;BME280;46567;51.660;5.824;2023-09-19T12:33:20;128310.0;;;190.6;67.5
60719;BME280;46567;51.660;5.824;2023-09-19T12:38:22;128320.0;;;190.6;66.5
60719;BME280;46567;51.660;5.824;2023-09-19T12:43:20;128310.0;;;190.6;66.0
60719;BME280;46567;51.660;5.824;2023-09-19T12:48:25;128300.0;;;190.6;65.0
60719;BME280;46567;51.660;5.824;2023-09-19T12:53:26;128370.0;;;190.6;65.5
60719;BME280;46567;51.660;5.824;2023-09-19T12:58:20;128440.0;;;190.6;66.0
60719;BME280;46567;51.660;5.824;2023-09-19T13:03:27;128490.0;;;190.6;67.0
60719;BME280;46567;51.660;5.824;2023-09-19T13:08:20;128510.0;;;190.6;68.0
60719;BME280;46567;51.660;5.824;2023-09-19T13:13:24;128510.0;;;190.6;68.0
60719;BME280;46567;51.660;5.824;2023-09-19T13:18:20;128480.0;;;190.6;69.0
60719;BME280;46567;51.660;5.824;2023-09-19T13:23:26;128440.0;;;190.6;68.5
60719;BME280;46567;51.660;5.824;2023-09-19T13:28:20;128450.0;;;190.6;68.0
60719;BME280;46567;51.660;5.824;2023-09-19T13:33:20;128490.0;;;190.6;68.0
60719;BME280;46567;51.660;5.824;2023-09-19T13:38:20;128520.0;;;190.6;68.5
60719;BME280;46567;51.660;5.824;2023-09-19T13:43:20;128530.0;;;190.6;70.0
60719;BME280;46567;51.660;5.824;2023-09-19T13:48:20;128540.0;;;190.6;70.0
60719;BME280;46567;51.660;5.824;2023-09-19T13:53:20;128550.0;;;190.6;69.0
60719;BME280;46567;51.660;5.824;2023-09-19T13:58:20;128560.0;;;190.6;69.0
60719;BME280;46567;51.660;5.824;2023-09-19T14:03:20;128550.0;;;190.6;69.5
60719;BME280;46567;51.660;5.824;2023-09-19T14:08:20;128520.0;;;190.6;69.5
60719;BME280;46567;51.660;5.824;2023-09-19T14:13:20;128470.0;;;190.6;69.5
60719;BME280;46567;51.660;5.824;2023-09-19T14:18:20;128480.0;;;190.6;68.5
60719;BME280;46567;51.660;5.824;2023-09-19T14:23:20;128480.0;;;190.6;68.0
60719;BME280;46567;51.660;5.824;2023-09-19T14:28:20;128480.0;;;190.6;69.0
60719;BME280;46567;51.660;5.824;2023-09-19T14:33:20;128480.0;;;190.6;69.0
60719;BME280;46567;51.660;5.824;2023-09-19T14:38:20;128490.0;;;190.6;69.0
60719;BME280;46567;51.660;5.824;2023-09-19T14:43:20;128480.0;;;190.6;69.0
60719;BME280;46567;51.660;5.824;2023-09-19T14:48:20;128490.0;;;190.6;69.5
60719;BME280;46567;51.660;5.824;2023-09-19T14:53:20;128510.0;;;190.6;69.5
60719;BME280;46567;51.660;5.824;2023-09-19T14:58:20;128500.0;;;190.6;70.0
60719;BME280;46567;51.660;5.824;2023-09-19T15:03:20;128500.0;;;190.6;70.0
60719;BME280;46567;51.660;5.824;2023-09-19T15:08:20;128500.0;;;190.6;70.0
60719;BME280;46567;51.660;5.824;2023-09-19T15:13:20;128510.0;;;190.6;71.0
60719;BME280;46567;51.660;5.824;2023-09-19T15:18:20;128530.0;;;190.6;71.5
60719;BME280;46567;51.660;5.824;2023-09-19T15:23:20;128520.0;;;190.6;71.5
60719;BME280;46567;51.660;5.824;2023-09-19T15:28:20;128550.0;;;190.6;71.0
60719;BME280;46567;51.660;5.824;2023-09-19T15:33:20;128560.0;;;190.6;71.0
60719;BME280;46567;51.660;5.824;2023-09-19T15:38:20;128550.0;;;190.6;71.5
60719;BME280;46567;51.660;5.824;2023-09-19T15:43:20;128560.0;;;190.6;71.5
60719;BME280;46567;51.660;5.824;2023-09-19T15:48:20;128570.0;;;190.6;71.5
60719;BME280;46567;51.660;5.824;2023-09-19T15:53:20;128600.0;;;190.6;72.5
60719;BME280;46567;51.660;5.824;2023-09-19T15:58:20;128610.0;;;190.6;72.5
60719;BME280;46567;51.660;5.824;2023-09-19T16:03:20;128640.0;;;190.6;73.5
60719;BME280;46567;51.660;5.824;2023-09-19T16:08:20;128660.0;;;190.6;73.0
60719;BME280;46567;51.660;5.824;2023-09-19T16:13:20;128660.0;;;190.6;73.5
60719;BME280;46567;51.660;5.824;2023-09-19T16:18:20;128680.0;;;190.6;73.5
60719;BME280;46567;51.660;5.824;2023-09-19T16:23:20;128690.0;;;190.6;74.0
60719;BME280;46567;51.660;5.824;2023-09-19T16:28:20;128700.0;;;190.6;74.0
60719;BME280;46567;51.660;5.824;2023-09-19T16:33:20;128710.0;;;190.6;74.5
60719;BME280;46567;51.660;5.824;2023-09-19T16:38:20;128720.0;;;190.6;74.5
60719;BME280;46567;51.660;5.824;2023-09-19T16:43:21;128750.0;;;190.6;74.5
60719;BME280;46567;51.660;5.824;2023-09-19T16:48:20;128760.0;;;190.6;75.0
60719;BME280;46567;51.660;5.824;2023-09-19T16:53:20;128760.0;;;190.6;75.5
60719;BME280;46567;51.660;5.824;2023-09-19T16:58:20;128770.0;;;190.6;75.5
60719;BME280;46567;51.660;5.824;2023-09-19T17:03:20;128780.0;;;190.6;75.5
60719;BME280;46567;51.660;5.824;2023-09-19T17:08:20;128780.0;;;190.6;76.0
60719;BME280;46567;51.660;5.824;2023-09-19T17:13:20;128800.0;;;190.6;76.5
60719;BME280;46567;51.660;5.824;2023-09-19T17:18:20;128800.0;;;190.6;76.5
60719;BME280;46567;51.660;5.824;2023-09-19T17:23:20;128810.0;;;190.6;77.0
60719;BME280;46567;51.660;5.824;2023-09-19T17:28:20;128820.0;;;190.6;77.0
60719;BME280;46567;51.660;5.824;2023-09-19T17:33:20;128830.0;;;190.6;77.0
60719;BME280;46567;51.660;5.824;2023-09-19T17:38:20;128830.0;;;190.6;77.0
60719;BME280;46567;51.660;5.824;2023-09-19T17:43:20;128820.0;;;190.6;77.0
60719;BME280;46567;51.660;5.824;2023-09-19T17:48:20;128830.0;;;190.6;77.0
60719;BME280;46567;51.660;5.824;2023-09-19T17:53:20;128840.0;;;190.6;77.5
60719;BME280;46567;51.660;5.824;2023-09-19T17:58:20;128830.0;;;190.6;77.5
60719;BME280;46567;51.660;5.824;2023-09-19T18:03:20;128850.0;;;190.6;77.5
60719;BME280;46567;51.660;5.824;2023-09-19T18:08:20;128840.0;;;190.6;77.5
60719;BME280;46567;51.660;5.824;2023-09-19T18:13:20;128850.0;;;190.6;78.0
60719;BME280;46567;51.660;5.824;2023-09-19T18:18:20;128860.0;;;190.6;78.0
60719;BME280;46567;51.660;5.824;2023-09-19T18:23:20;128880.0;;;190.6;78.0
60719;BME280;46567;51.660;5.824;2023-09-19T18:28:20;128900.0;;;190.6;78.5
60719;BME280;46567;51.660;5.824;2023-09-19T18:33:20;128900.0;;;190.6;79.5
60719;BME280;46567;51.660;5.824;2023-09-19T18:38:20;128910.0;;;190.6;79.5
60719;BME280;46567;51.660;5.824;2023-09-19T18:43:20;128930.0;;;190.6;80.0
60719;BME280;46567;51.660;5.824;2023-09-19T18:48:20;128960.0;;;190.6;80.5
60719;BME280;46567;51.660;5.824;2023-09-19T18:53:20;128950.0;;;190.6;80.5
60719;BME280;46567;51.660;5.824;2023-09-19T18:58:20;128960.0;;;190.6;81.0
60719;BME280;46567;51.660;5.824;2023-09-19T19:03:20;128970.0;;;190.6;81.0
60719;BME280;46567;51.660;5.824;2023-09-19T19:08:20;128970.0;;;190.6;81.0
60719;BME280;46567;51.660;5.824;2023-09-19T19:13:20;128970.0;;;190.6;81.5
60719;BME280;46567;51.660;5.824;2023-09-19T19:18:20;128960.0;;;190.6;81.5
60719;BME280;46567;51.660;5.824;2023-09-19T19:23:20;128950.0;;;190.6;81.5
60719;BME280;46567;51.660;5.824;2023-09-19T19:28:20;128950.0;;;190.6;82.0
60719;BME280;46567;51.660;5.824;2023-09-19T19:33:20;128960.0;;;190.6;82.0
60719;BME280;46567;51.660;5.824;2023-09-19T19:38:20;128970.0;;;190.6;82.0
60719;BME280;46567;51.660;5.824;2023-09-19T19:43:20;128950.0;;;190.6;82.0
60719;BME280;46567;51.660;5.824;2023-09-19T19:48:20;128960.0;;;190.6;82.0
60719;BME280;46567;51.660;5.824;2023-09-19T19:53:21;128960.0;;;190.6;82.5
60719;BME280;46567;51.660;5.824;2023-09-19T19:58:20;128980.0;;;190.6;82.5
60719;BME280;46567;51.660;5.824;2023-09-19T20:03:20;128970.0;;;190.6;82.5
60719;BME280;46567;51.660;5.824;2023-09-19T20:08:20;128970.0;;;190.6;82.5
60719;BME280;46567;51.660;5.824;2023-09-19T20:13:20;128960.0;;;190.6;83.0
60719;BME280;46567;51.660;5.824;2023-09-19T20:18:20;128980.0;;;190.6;83.0
60719;BME280;46567;51.660;5.824;2023-09-19T20:23:20;128980.0;;;190.6;83.0
60719;BME280;46567;51.660;5.824;2023-09-19T20:28:20;128990.0;;;190.6;83.0
60719;BME280;46567;51.660;5.824;2023-09-19T20:33:23;128990.0;;;190.6;83.0
60719;BME280;46567;51.660;5.824;2023-09-19T20:38:20;128990.0;;;190.6;83.0
60719;BME280;46567;51.660;5.824;2023-09-19T20:43:20;128980.0;;;190.6;82.5
60719;BME280;46567;51.660;5.824;2023-09-19T20:48:20;128980.0;;;190.6;82.5
60719;BME280;46567;51.660;5.824;2023-09-19T20:53:20;128990.0;;;190.6;82.5
60719;BME280;46567;51.660;5.824;2023-09-19T20:58:20;128970.0;;;190.6;82.5
60719;BME280;46567;51.660;5.824;2023-09-19T21:03:20;128950.0;;;190.6;82.5
60719;BME280;46567;51.660;5.824;2023-09-19T21:08:20;128960.0;;;190.6;82.5
60719;BME280;46567;51.660;5.824;2023-09-19T21:13:20;128970.0;;;190.6;82.5
60719;BME280;46567;51.660;5.824;2023-09-19T21:18:20;128960.0;;;190.6;82.5
60719;BME280;46567;51.660;5.824;2023-09-19T21:23:20;128960.0;;;190.6;82.5
60719;BME280;46567;51.660;5.824;2023-09-19T21:28:20;128950.0;;;190.6;82.5
60719;BME280;46567;51.660;5.824;2023-09-19T21:33:20;128940.0;;;190.6;82.5
60719;BME280;46567;51.660;5.824;2023-09-19T21:38:20;128940.0;;;190.6;82.5
60719;BME280;46567;51.660;5.824;2023-09-19T21:43:20;128950.0;;;190.6;82.5
60719;BME280;46567;51.660;5.824;2023-09-19T21:48:20;128930.0;;;190.6;83.0
60719;BME280;46567;51.660;5.824;2023-09-19T21:53:20;128930.0;;;190.6;83.0
60719;BME280;46567;51.660;5.824;2023-09-19T21:58:20;128920.0;;;190.6;83.0
60719;BME280;46567;51.660;5.824;2023-09-19T22:03:20;128940.0;;;190.6;83.0
60719;BME280;46567;51.660;5.824;2023-09-19T22:08:20;128940.0;;;190.6;83.0
60719;BME280;46567;51.660;5.824;2023-09-19T22:13:20;128940.0;;;190.6;83.0
60719;BME280;46567;51.660;5.824;2023-09-19T22:18:20;128940.0;;;190.6;83.5
60719;BME280;46567;51.660;5.824;2023-09-19T22:23:20;128940.0;;;190.6;83.5
60719;BME280;46567;51.660;5.824;2023-09-19T22:28:20;128940.0;;;190.6;83.5
60719;BME280;46567;51.660;5.824;2023-09-19T22:33:20;128940.0;;;190.6;83.5
60719;BME280;46567;51.660;5.824;2023-09-19T22:38:20;128940.0;;;190.6;83.5
60719;BME280;46567;51.660;5.824;2023-09-19T22:43:21;128940.0;;;190.6;84.0
60719;BME280;46567;51.660;5.824;2023-09-19T22:48:20;128930.0;;;190.6;84.0
60719;BME280;46567;51.660;5.824;2023-09-19T22:53:20;128930.0;;;190.6;84.0
60719;BME280;46567;51.660;5.824;2023-09-19T22:58:20;128930.0;;;190.6;84.0
60719;BME280;46567;51.660;5.824;2023-09-19T23:03:20;128940.0;;;190.6;84.0
60719;BME280;46567;51.660;5.824;2023-09-19T23:08:20;128950.0;;;190.6;84.5
60719;BME280;46567;51.660;5.824;2023-09-19T23:13:20;128960.0;;;190.6;84.5
60719;BME280;46567;51.660;5.824;2023-09-19T23:18:21;128980.0;;;190.6;85.0
60719;BME280;46567;51.660;5.824;2023-09-19T23:23:20;129000.0;;;190.6;85.0
60719;BME280;46567;51.660;5.824;2023-09-19T23:28:20;129010.0;;;190.6;85.5
60719;BME280;46567;51.660;5.824;2023-09-19T23:33:20;129030.0;;;190.6;85.5
60719;BME280;46567;51.660;5.824;2023-09-19T23:38:20;129040.0;;;190.6;86.0
60719;BME280;46567;51.660;5.824;2023-09-19T23:43:20;129040.0;;;190.6;86.0
60719;BME280;46567;51.660;5.824;2023-09-19T23:48:20;129040.0;;;190.6;86.5
60719;BME280;46567;51.660;5.824;2023-09-19T23:53:20;129060.0;;;190.6;86.5
60719;BME280;46567;51.660;5.824;2023-09-19T23:58:20;129060.0;;;190.6;86.5
